sensor_id;sensor_type;location;lat;lon;timestamp;temperature;humidity
57058;DHT22;55017;52.848;6.748;2023-04-24T00:02:13;10.90;99.90
57058;DHT22;55017;52.848;6.748;2023-04-24T00:04:39;10.70;99.90
57058;DHT22;55017;52.848;6.748;2023-04-24T00:07:10;10.70;99.90
57058;DHT22;55017;52.848;6.748;2023-04-24T00:09:36;10.80;99.90
57058;DHT22;55017;52.848;6.748;2023-04-24T00:12:01;10.70;99.90
57058;DHT22;55017;52.848;6.748;2023-04-24T00:14:30;10.70;99.90
57058;DHT22;55017;52.848;6.748;2023-04-24T00:16:55;10.60;99.90
57058;DHT22;55017;52.848;6.748;2023-04-24T00:19:21;10.60;99.90
57058;DHT22;55017;52.848;6.748;2023-04-24T00:21:47;10.60;99.90
57058;DHT22;55017;52.848;6.748;2023-04-24T00:24:16;10.50;99.90
57058;DHT22;55017;52.848;6.748;2023-04-24T00:26:42;10.60;99.90
57058;DHT22;55017;52.848;6.748;2023-04-24T00:29:07;10.70;99.90
57058;DHT22;55017;52.848;6.748;2023-04-24T00:31:33;10.60;99.90
57058;DHT22;55017;52.848;6.748;2023-04-24T00:34:00;10.60;99.90
57058;DHT22;55017;52.848;6.748;2023-04-24T00:36:27;10.60;99.90
57058;DHT22;55017;52.848;6.748;2023-04-24T00:38:53;10.60;99.90
57058;DHT22;55017;52.848;6.748;2023-04-24T00:41:19;10.70;99.90
57058;DHT22;55017;52.848;6.748;2023-04-24T00:43:45;10.60;99.90
57058;DHT22;55017;52.848;6.748;2023-04-24T00:46:12;10.60;99.90
57058;DHT22;55017;52.848;6.748;2023-04-24T00:48:39;10.60;99.90
57058;DHT22;55017;52.848;6.748;2023-04-24T00:51:05;10.70;99.90
57058;DHT22;55017;52.848;6.748;2023-04-24T00:53:30;10.60;99.90
57058;DHT22;55017;52.848;6.748;2023-04-24T00:55:56;10.60;99.90
57058;DHT22;55017;52.848;6.748;2023-04-24T00:58:23;10.70;99.90
57058;DHT22;55017;52.848;6.748;2023-04-24T01:00:49;10.70;99.90
57058;DHT22;55017;52.848;6.748;2023-04-24T01:03:22;10.70;99.90
57058;DHT22;55017;52.848;6.748;2023-04-24T01:05:49;10.70;99.90
57058;DHT22;55017;52.848;6.748;2023-04-24T01:08:15;10.70;99.90
57058;DHT22;55017;52.848;6.748;2023-04-24T01:10:41;10.70;99.90
57058;DHT22;55017;52.848;6.748;2023-04-24T01:13:08;10.60;99.90
57058;DHT22;55017;52.848;6.748;2023-04-24T01:15:34;10.70;99.90
57058;DHT22;55017;52.848;6.748;2023-04-24T01:18:00;10.60;99.90
57058;DHT22;55017;52.848;6.748;2023-04-24T01:20:26;10.70;99.90
57058;DHT22;55017;52.848;6.748;2023-04-24T01:22:52;10.60;99.90
57058;DHT22;55017;52.848;6.748;2023-04-24T01:25:20;10.60;99.90
57058;DHT22;55017;52.848;6.748;2023-04-24T01:27:45;10.40;99.90
57058;DHT22;55017;52.848;6.748;2023-04-24T01:30:12;10.40;99.90
57058;DHT22;55017;52.848;6.748;2023-04-24T01:32:37;10.40;99.90
57058;DHT22;55017;52.848;6.748;2023-04-24T01:35:04;10.30;99.90
57058;DHT22;55017;52.848;6.748;2023-04-24T01:37:30;10.30;99.90
57058;DHT22;55017;52.848;6.748;2023-04-24T01:39:57;10.30;99.90
57058;DHT22;55017;52.848;6.748;2023-04-24T01:42:23;10.30;99.90
57058;DHT22;55017;52.848;6.748;2023-04-24T01:44:49;10.20;99.90
57058;DHT22;55017;52.848;6.748;2023-04-24T01:47:15;10.40;99.90
57058;DHT22;55017;52.848;6.748;2023-04-24T01:49:41;10.10;99.90
57058;DHT22;55017;52.848;6.748;2023-04-24T01:52:06;10.20;99.90
57058;DHT22;55017;52.848;6.748;2023-04-24T01:54:32;10.20;99.90
57058;DHT22;55017;52.848;6.748;2023-04-24T01:56:59;10.20;99.90
57058;DHT22;55017;52.848;6.748;2023-04-24T01:59:27;10.10;99.90
57058;DHT22;55017;52.848;6.748;2023-04-24T02:01:53;10.10;99.90
57058;DHT22;55017;52.848;6.748;2023-04-24T02:04:18;10.10;99.90
57058;DHT22;55017;52.848;6.748;2023-04-24T02:06:44;10.20;99.90
57058;DHT22;55017;52.848;6.748;2023-04-24T02:09:10;10.00;99.90
57058;DHT22;55017;52.848;6.748;2023-04-24T02:11:36;10.00;99.90
57058;DHT22;55017;52.848;6.748;2023-04-24T02:14:02;10.00;99.90
57058;DHT22;55017;52.848;6.748;2023-04-24T02:16:28;10.00;99.90
57058;DHT22;55017;52.848;6.748;2023-04-24T02:18:57;10.00;99.90
57058;DHT22;55017;52.848;6.748;2023-04-24T02:21:23;10.00;99.90
57058;DHT22;55017;52.848;6.748;2023-04-24T02:23:48;10.00;99.90
57058;DHT22;55017;52.848;6.748;2023-04-24T02:26:14;10.00;99.90
57058;DHT22;55017;52.848;6.748;2023-04-24T02:28:40;10.00;99.90
57058;DHT22;55017;52.848;6.748;2023-04-24T02:31:06;10.00;99.90
57058;DHT22;55017;52.848;6.748;2023-04-24T02:33:32;9.90;99.90
57058;DHT22;55017;52.848;6.748;2023-04-24T02:35:57;10.00;99.90
57058;DHT22;55017;52.848;6.748;2023-04-24T02:38:23;9.90;99.90
57058;DHT22;55017;52.848;6.748;2023-04-24T02:40:48;9.90;99.90
57058;DHT22;55017;52.848;6.748;2023-04-24T02:43:14;9.90;99.90
57058;DHT22;55017;52.848;6.748;2023-04-24T02:45:39;9.90;99.90
57058;DHT22;55017;52.848;6.748;2023-04-24T02:48:05;10.00;99.90
57058;DHT22;55017;52.848;6.748;2023-04-24T02:50:31;9.90;99.90
57058;DHT22;55017;52.848;6.748;2023-04-24T02:52:57;9.90;99.90
57058;DHT22;55017;52.848;6.748;2023-04-24T02:55:22;9.90;99.90
57058;DHT22;55017;52.848;6.748;2023-04-24T02:57:48;9.90;99.90
57058;DHT22;55017;52.848;6.748;2023-04-24T03:00:13;9.80;99.90
57058;DHT22;55017;52.848;6.748;2023-04-24T03:02:39;9.90;99.90
57058;DHT22;55017;52.848;6.748;2023-04-24T03:05:05;10.00;99.90
57058;DHT22;55017;52.848;6.748;2023-04-24T03:07:31;9.80;99.90
57058;DHT22;55017;52.848;6.748;2023-04-24T03:09:57;9.80;99.90
57058;DHT22;55017;52.848;6.748;2023-04-24T03:12:23;9.90;99.90
57058;DHT22;55017;52.848;6.748;2023-04-24T03:14:49;9.90;99.90
57058;DHT22;55017;52.848;6.748;2023-04-24T03:17:15;9.70;99.90
57058;DHT22;55017;52.848;6.748;2023-04-24T03:19:40;9.70;99.90
57058;DHT22;55017;52.848;6.748;2023-04-24T03:22:06;9.70;99.90
57058;DHT22;55017;52.848;6.748;2023-04-24T03:24:32;9.70;99.90
57058;DHT22;55017;52.848;6.748;2023-04-24T03:26:57;9.80;99.90
57058;DHT22;55017;52.848;6.748;2023-04-24T03:29:23;9.80;99.90
57058;DHT22;55017;52.848;6.748;2023-04-24T03:31:48;9.80;99.90
57058;DHT22;55017;52.848;6.748;2023-04-24T03:34:14;9.80;99.90
57058;DHT22;55017;52.848;6.748;2023-04-24T03:36:40;9.80;99.90
57058;DHT22;55017;52.848;6.748;2023-04-24T03:39:05;9.80;99.90
57058;DHT22;55017;52.848;6.748;2023-04-24T03:41:31;9.70;99.90
57058;DHT22;55017;52.848;6.748;2023-04-24T03:43:56;9.80;99.90
57058;DHT22;55017;52.848;6.748;2023-04-24T03:46:22;9.80;99.90
57058;DHT22;55017;52.848;6.748;2023-04-24T03:48:47;9.80;99.90
57058;DHT22;55017;52.848;6.748;2023-04-24T03:51:13;9.70;99.90
57058;DHT22;55017;52.848;6.748;2023-04-24T03:53:38;9.70;99.90
57058;DHT22;55017;52.848;6.748;2023-04-24T03:56:04;9.70;99.90
57058;DHT22;55017;52.848;6.748;2023-04-24T03:58:30;9.70;99.90
57058;DHT22;55017;52.848;6.748;2023-04-24T04:00:56;9.70;99.90
57058;DHT22;55017;52.848;6.748;2023-04-24T04:03:23;9.70;99.90
57058;DHT22;55017;52.848;6.748;2023-04-24T04:05:49;9.60;99.90
57058;DHT22;55017;52.848;6.748;2023-04-24T04:08:14;9.70;99.90
57058;DHT22;55017;52.848;6.748;2023-04-24T04:10:40;9.70;99.90
57058;DHT22;55017;52.848;6.748;2023-04-24T04:13:06;9.70;99.90
57058;DHT22;55017;52.848;6.748;2023-04-24T04:15:31;9.70;99.90
57058;DHT22;55017;52.848;6.748;2023-04-24T04:17:57;9.70;99.90
57058;DHT22;55017;52.848;6.748;2023-04-24T04:20:23;9.80;99.90
57058;DHT22;55017;52.848;6.748;2023-04-24T04:22:48;9.70;99.90
57058;DHT22;55017;52.848;6.748;2023-04-24T04:25:14;9.70;99.90
57058;DHT22;55017;52.848;6.748;2023-04-24T04:27:40;9.60;99.90
57058;DHT22;55017;52.848;6.748;2023-04-24T04:30:07;9.60;99.90
57058;DHT22;55017;52.848;6.748;2023-04-24T04:32:36;9.60;99.90
57058;DHT22;55017;52.848;6.748;2023-04-24T04:35:02;9.60;99.90
57058;DHT22;55017;52.848;6.748;2023-04-24T04:37:34;9.60;99.90
57058;DHT22;55017;52.848;6.748;2023-04-24T04:40:00;9.70;99.90
57058;DHT22;55017;52.848;6.748;2023-04-24T04:42:26;9.50;99.90
57058;DHT22;55017;52.848;6.748;2023-04-24T04:44:52;9.50;99.90
57058;DHT22;55017;52.848;6.748;2023-04-24T04:47:20;9.60;99.90
57058;DHT22;55017;52.848;6.748;2023-04-24T04:49:48;9.50;99.90
57058;DHT22;55017;52.848;6.748;2023-04-24T04:52:13;9.60;99.90
57058;DHT22;55017;52.848;6.748;2023-04-24T04:54:39;9.50;99.90
57058;DHT22;55017;52.848;6.748;2023-04-24T04:57:05;9.60;99.90
57058;DHT22;55017;52.848;6.748;2023-04-24T04:59:31;9.50;99.90
57058;DHT22;55017;52.848;6.748;2023-04-24T05:01:56;9.50;99.90
57058;DHT22;55017;52.848;6.748;2023-04-24T05:04:22;9.50;99.90
57058;DHT22;55017;52.848;6.748;2023-04-24T05:06:47;9.60;99.90
57058;DHT22;55017;52.848;6.748;2023-04-24T05:09:13;9.50;99.90
57058;DHT22;55017;52.848;6.748;2023-04-24T05:11:38;9.50;99.90
57058;DHT22;55017;52.848;6.748;2023-04-24T05:14:04;9.40;99.90
57058;DHT22;55017;52.848;6.748;2023-04-24T05:16:30;9.50;99.90
57058;DHT22;55017;52.848;6.748;2023-04-24T05:18:56;9.40;99.90
57058;DHT22;55017;52.848;6.748;2023-04-24T05:21:21;9.40;99.90
57058;DHT22;55017;52.848;6.748;2023-04-24T05:23:47;9.40;99.90
57058;DHT22;55017;52.848;6.748;2023-04-24T05:26:13;9.40;99.90
57058;DHT22;55017;52.848;6.748;2023-04-24T05:28:39;9.40;99.90
57058;DHT22;55017;52.848;6.748;2023-04-24T05:31:06;9.40;99.90
57058;DHT22;55017;52.848;6.748;2023-04-24T05:33:32;9.30;99.90
57058;DHT22;55017;52.848;6.748;2023-04-24T05:35:57;9.50;99.90
57058;DHT22;55017;52.848;6.748;2023-04-24T05:38:23;9.40;99.90
57058;DHT22;55017;52.848;6.748;2023-04-24T05:40:48;9.40;99.90
57058;DHT22;55017;52.848;6.748;2023-04-24T05:43:14;9.40;99.90
57058;DHT22;55017;52.848;6.748;2023-04-24T05:45:40;9.50;99.90
57058;DHT22;55017;52.848;6.748;2023-04-24T05:48:05;9.50;99.90
57058;DHT22;55017;52.848;6.748;2023-04-24T05:50:31;9.50;99.90
57058;DHT22;55017;52.848;6.748;2023-04-24T05:52:57;9.60;99.90
57058;DHT22;55017;52.848;6.748;2023-04-24T05:55:24;9.50;99.90
57058;DHT22;55017;52.848;6.748;2023-04-24T05:57:50;9.40;99.90
57058;DHT22;55017;52.848;6.748;2023-04-24T06:00:16;9.50;99.90
57058;DHT22;55017;52.848;6.748;2023-04-24T06:02:45;9.50;99.90
57058;DHT22;55017;52.848;6.748;2023-04-24T06:05:10;9.60;99.90
57058;DHT22;55017;52.848;6.748;2023-04-24T06:07:36;9.50;99.90
57058;DHT22;55017;52.848;6.748;2023-04-24T06:10:02;9.60;99.90
57058;DHT22;55017;52.848;6.748;2023-04-24T06:12:28;9.60;99.90
57058;DHT22;55017;52.848;6.748;2023-04-24T06:14:53;9.60;99.90
57058;DHT22;55017;52.848;6.748;2023-04-24T06:17:20;9.70;99.90
57058;DHT22;55017;52.848;6.748;2023-04-24T06:19:46;9.70;99.90
57058;DHT22;55017;52.848;6.748;2023-04-24T06:22:12;9.70;99.90
57058;DHT22;55017;52.848;6.748;2023-04-24T06:24:39;9.70;99.90
57058;DHT22;55017;52.848;6.748;2023-04-24T06:27:04;9.70;99.90
57058;DHT22;55017;52.848;6.748;2023-04-24T06:29:30;9.80;99.90
57058;DHT22;55017;52.848;6.748;2023-04-24T06:31:56;9.80;99.90
57058;DHT22;55017;52.848;6.748;2023-04-24T06:34:21;9.80;99.90
57058;DHT22;55017;52.848;6.748;2023-04-24T06:36:47;9.90;99.90
57058;DHT22;55017;52.848;6.748;2023-04-24T06:39:12;9.90;99.90
57058;DHT22;55017;52.848;6.748;2023-04-24T06:41:38;10.00;99.90
57058;DHT22;55017;52.848;6.748;2023-04-24T06:44:05;10.00;99.90
57058;DHT22;55017;52.848;6.748;2023-04-24T06:46:30;10.00;99.90
57058;DHT22;55017;52.848;6.748;2023-04-24T06:48:56;10.10;99.90
57058;DHT22;55017;52.848;6.748;2023-04-24T06:51:23;10.10;99.90
57058;DHT22;55017;52.848;6.748;2023-04-24T06:53:49;10.20;99.90
57058;DHT22;55017;52.848;6.748;2023-04-24T06:56:15;10.20;99.90
57058;DHT22;55017;52.848;6.748;2023-04-24T06:58:41;10.20;99.90
57058;DHT22;55017;52.848;6.748;2023-04-24T07:01:07;10.20;99.90
57058;DHT22;55017;52.848;6.748;2023-04-24T07:03:32;10.30;99.90
57058;DHT22;55017;52.848;6.748;2023-04-24T07:05:58;10.40;99.90
57058;DHT22;55017;52.848;6.748;2023-04-24T07:08:23;10.50;99.90
57058;DHT22;55017;52.848;6.748;2023-04-24T07:10:50;10.40;99.90
57058;DHT22;55017;52.848;6.748;2023-04-24T07:13:16;10.40;99.90
57058;DHT22;55017;52.848;6.748;2023-04-24T07:15:42;10.40;99.90
57058;DHT22;55017;52.848;6.748;2023-04-24T07:18:08;10.40;99.90
57058;DHT22;55017;52.848;6.748;2023-04-24T07:20:34;10.40;99.90
57058;DHT22;55017;52.848;6.748;2023-04-24T07:23:00;10.40;99.90
57058;DHT22;55017;52.848;6.748;2023-04-24T07:25:25;10.50;99.90
57058;DHT22;55017;52.848;6.748;2023-04-24T07:27:51;10.50;99.90
57058;DHT22;55017;52.848;6.748;2023-04-24T07:30:17;10.50;99.90
57058;DHT22;55017;52.848;6.748;2023-04-24T07:32:43;10.50;99.90
57058;DHT22;55017;52.848;6.748;2023-04-24T07:35:08;10.50;99.90
57058;DHT22;55017;52.848;6.748;2023-04-24T07:37:35;10.50;99.90
57058;DHT22;55017;52.848;6.748;2023-04-24T07:40:01;10.60;99.90
57058;DHT22;55017;52.848;6.748;2023-04-24T07:42:27;10.60;99.90
57058;DHT22;55017;52.848;6.748;2023-04-24T07:44:53;10.60;99.90
57058;DHT22;55017;52.848;6.748;2023-04-24T07:47:18;10.60;99.90
57058;DHT22;55017;52.848;6.748;2023-04-24T07:49:44;10.60;99.90
57058;DHT22;55017;52.848;6.748;2023-04-24T07:52:09;10.60;99.90
57058;DHT22;55017;52.848;6.748;2023-04-24T07:54:35;10.50;99.90
57058;DHT22;55017;52.848;6.748;2023-04-24T07:57:02;10.60;99.90
57058;DHT22;55017;52.848;6.748;2023-04-24T07:59:28;10.60;99.90
57058;DHT22;55017;52.848;6.748;2023-04-24T08:01:53;10.60;99.90
57058;DHT22;55017;52.848;6.748;2023-04-24T08:04:19;10.70;99.90
57058;DHT22;55017;52.848;6.748;2023-04-24T08:06:47;10.70;99.90
57058;DHT22;55017;52.848;6.748;2023-04-24T08:09:13;10.80;99.90
57058;DHT22;55017;52.848;6.748;2023-04-24T08:11:39;10.70;99.90
57058;DHT22;55017;52.848;6.748;2023-04-24T08:14:04;10.70;99.90
57058;DHT22;55017;52.848;6.748;2023-04-24T08:16:30;10.60;99.90
57058;DHT22;55017;52.848;6.748;2023-04-24T08:18:57;10.60;99.90
57058;DHT22;55017;52.848;6.748;2023-04-24T08:21:23;10.60;99.90
57058;DHT22;55017;52.848;6.748;2023-04-24T08:23:48;10.60;99.90
57058;DHT22;55017;52.848;6.748;2023-04-24T08:26:14;10.50;99.90
57058;DHT22;55017;52.848;6.748;2023-04-24T08:28:40;10.50;99.90
57058;DHT22;55017;52.848;6.748;2023-04-24T08:31:05;10.40;99.90
57058;DHT22;55017;52.848;6.748;2023-04-24T08:33:31;10.50;99.90
57058;DHT22;55017;52.848;6.748;2023-04-24T08:36:01;10.40;99.90
57058;DHT22;55017;52.848;6.748;2023-04-24T08:38:27;10.40;99.90
57058;DHT22;55017;52.848;6.748;2023-04-24T08:40:52;10.50;99.90
57058;DHT22;55017;52.848;6.748;2023-04-24T08:43:21;11.10;99.90
57058;DHT22;55017;52.848;6.748;2023-04-24T08:45:47;10.90;99.90
57058;DHT22;55017;52.848;6.748;2023-04-24T08:48:13;10.60;99.90
57058;DHT22;55017;52.848;6.748;2023-04-24T08:50:40;10.50;99.90
57058;DHT22;55017;52.848;6.748;2023-04-24T08:53:08;10.40;99.90
57058;DHT22;55017;52.848;6.748;2023-04-24T08:55:34;10.30;99.90
57058;DHT22;55017;52.848;6.748;2023-04-24T08:58:01;10.40;99.90
57058;DHT22;55017;52.848;6.748;2023-04-24T09:00:28;10.30;99.90
57058;DHT22;55017;52.848;6.748;2023-04-24T09:02:53;10.40;99.90
57058;DHT22;55017;52.848;6.748;2023-04-24T09:05:22;10.30;99.90
57058;DHT22;55017;52.848;6.748;2023-04-24T09:07:56;10.40;99.90
57058;DHT22;55017;52.848;6.748;2023-04-24T09:10:23;10.30;99.90
57058;DHT22;55017;52.848;6.748;2023-04-24T09:12:52;10.30;99.90
57058;DHT22;55017;52.848;6.748;2023-04-24T09:15:19;10.30;99.90
57058;DHT22;55017;52.848;6.748;2023-04-24T09:17:46;10.30;99.90
57058;DHT22;55017;52.848;6.748;2023-04-24T09:20:12;10.20;99.90
57058;DHT22;55017;52.848;6.748;2023-04-24T09:22:37;10.30;99.90
57058;DHT22;55017;52.848;6.748;2023-04-24T09:25:07;10.10;99.90
57058;DHT22;55017;52.848;6.748;2023-04-24T09:27:34;10.10;99.90
57058;DHT22;55017;52.848;6.748;2023-04-24T09:30:00;10.20;99.90
57058;DHT22;55017;52.848;6.748;2023-04-24T09:32:26;10.10;99.90
57058;DHT22;55017;52.848;6.748;2023-04-24T09:35:10;10.10;99.90
57058;DHT22;55017;52.848;6.748;2023-04-24T09:37:45;10.00;99.90
57058;DHT22;55017;52.848;6.748;2023-04-24T09:40:16;10.00;99.90
57058;DHT22;55017;52.848;6.748;2023-04-24T09:42:52;9.90;99.90
57058;DHT22;55017;52.848;6.748;2023-04-24T09:45:18;9.90;99.90
57058;DHT22;55017;52.848;6.748;2023-04-24T09:47:43;9.90;99.90
57058;DHT22;55017;52.848;6.748;2023-04-24T09:50:11;9.90;99.90
57058;DHT22;55017;52.848;6.748;2023-04-24T09:52:41;10.00;99.90
57058;DHT22;55017;52.848;6.748;2023-04-24T09:55:18;9.90;99.90
57058;DHT22;55017;52.848;6.748;2023-04-24T09:57:58;10.00;99.90
57058;DHT22;55017;52.848;6.748;2023-04-24T10:00:29;9.90;99.90
57058;DHT22;55017;52.848;6.748;2023-04-24T10:05:28;10.10;99.90
57058;DHT22;55017;52.848;6.748;2023-04-24T10:08:01;10.00;99.90
57058;DHT22;55017;52.848;6.748;2023-04-24T10:10:28;9.90;99.90
57058;DHT22;55017;52.848;6.748;2023-04-24T10:12:54;9.90;99.90
57058;DHT22;55017;52.848;6.748;2023-04-24T10:15:21;9.90;99.90
57058;DHT22;55017;52.848;6.748;2023-04-24T10:17:50;9.90;99.90
57058;DHT22;55017;52.848;6.748;2023-04-24T10:20:24;9.90;99.90
57058;DHT22;55017;52.848;6.748;2023-04-24T10:22:51;9.90;99.90
57058;DHT22;55017;52.848;6.748;2023-04-24T10:25:26;9.90;99.90
57058;DHT22;55017;52.848;6.748;2023-04-24T10:27:53;10.00;99.90
57058;DHT22;55017;52.848;6.748;2023-04-24T10:30:22;10.00;99.90
57058;DHT22;55017;52.848;6.748;2023-04-24T10:32:48;10.00;99.90
57058;DHT22;55017;52.848;6.748;2023-04-24T10:35:15;10.10;99.90
57058;DHT22;55017;52.848;6.748;2023-04-24T10:37:48;10.20;99.90
57058;DHT22;55017;52.848;6.748;2023-04-24T10:40:19;10.20;99.90
57058;DHT22;55017;52.848;6.748;2023-04-24T10:42:51;10.20;99.90
57058;DHT22;55017;52.848;6.748;2023-04-24T10:45:19;10.20;99.90
57058;DHT22;55017;52.848;6.748;2023-04-24T10:48:07;10.20;99.90
57058;DHT22;55017;52.848;6.748;2023-04-24T10:50:51;10.10;99.90
57058;DHT22;55017;52.848;6.748;2023-04-24T10:53:22;10.10;99.90
57058;DHT22;55017;52.848;6.748;2023-04-24T10:58:45;10.10;99.90
57058;DHT22;55017;52.848;6.748;2023-04-24T11:01:28;10.00;99.90
57058;DHT22;55017;52.848;6.748;2023-04-24T11:03:58;9.90;99.90
57058;DHT22;55017;52.848;6.748;2023-04-24T11:06:32;9.90;99.90
57058;DHT22;55017;52.848;6.748;2023-04-24T11:09:03;9.80;99.90
57058;DHT22;55017;52.848;6.748;2023-04-24T11:11:33;10.00;99.90
57058;DHT22;55017;52.848;6.748;2023-04-24T11:16:43;9.90;99.90
57058;DHT22;55017;52.848;6.748;2023-04-24T11:22:01;10.00;99.90
57058;DHT22;55017;52.848;6.748;2023-04-24T11:29:46;10.20;99.90
57058;DHT22;55017;52.848;6.748;2023-04-24T11:37:36;10.00;99.90
57058;DHT22;55017;52.848;6.748;2023-04-24T11:40:04;10.10;99.90
57058;DHT22;55017;52.848;6.748;2023-04-24T11:42:50;9.90;99.90
57058;DHT22;55017;52.848;6.748;2023-04-24T11:45:22;10.00;99.90
57058;DHT22;55017;52.848;6.748;2023-04-24T11:47:48;9.90;99.90
57058;DHT22;55017;52.848;6.748;2023-04-24T11:50:16;9.80;99.90
57058;DHT22;55017;52.848;6.748;2023-04-24T11:52:44;9.90;99.90
57058;DHT22;55017;52.848;6.748;2023-04-24T11:57:53;9.90;99.90
57058;DHT22;55017;52.848;6.748;2023-04-24T12:02:48;9.90;99.90
57058;DHT22;55017;52.848;6.748;2023-04-24T12:05:25;10.20;99.90
57058;DHT22;55017;52.848;6.748;2023-04-24T12:07:52;10.20;99.90
57058;DHT22;55017;52.848;6.748;2023-04-24T12:10:25;10.10;99.90
57058;DHT22;55017;52.848;6.748;2023-04-24T12:12:51;10.20;99.90
57058;DHT22;55017;52.848;6.748;2023-04-24T12:15:21;10.10;99.90
57058;DHT22;55017;52.848;6.748;2023-04-24T12:17:48;10.10;99.90
57058;DHT22;55017;52.848;6.748;2023-04-24T12:20:15;9.90;99.90
57058;DHT22;55017;52.848;6.748;2023-04-24T12:22:52;10.00;99.90
57058;DHT22;55017;52.848;6.748;2023-04-24T12:25:20;9.90;99.90
57058;DHT22;55017;52.848;6.748;2023-04-24T12:27:52;9.80;99.90
57058;DHT22;55017;52.848;6.748;2023-04-24T12:30:17;9.80;99.90
57058;DHT22;55017;52.848;6.748;2023-04-24T12:32:48;9.80;99.90
57058;DHT22;55017;52.848;6.748;2023-04-24T12:35:19;9.90;99.90
57058;DHT22;55017;52.848;6.748;2023-04-24T12:37:46;10.00;99.90
57058;DHT22;55017;52.848;6.748;2023-04-24T12:40:13;9.90;99.90
57058;DHT22;55017;52.848;6.748;2023-04-24T12:42:47;10.00;99.90
57058;DHT22;55017;52.848;6.748;2023-04-24T12:45:13;10.20;99.90
57058;DHT22;55017;52.848;6.748;2023-04-24T12:47:40;10.10;99.90
57058;DHT22;55017;52.848;6.748;2023-04-24T12:50:08;10.20;99.90
57058;DHT22;55017;52.848;6.748;2023-04-24T12:52:33;10.20;99.90
57058;DHT22;55017;52.848;6.748;2023-04-24T12:55:00;10.20;99.90
57058;DHT22;55017;52.848;6.748;2023-04-24T12:57:28;10.30;99.90
57058;DHT22;55017;52.848;6.748;2023-04-24T12:59:56;10.40;99.90
57058;DHT22;55017;52.848;6.748;2023-04-24T13:02:22;10.60;99.90
57058;DHT22;55017;52.848;6.748;2023-04-24T13:04:48;10.70;99.90
57058;DHT22;55017;52.848;6.748;2023-04-24T13:07:14;10.90;99.90
57058;DHT22;55017;52.848;6.748;2023-04-24T13:09:43;10.90;99.90
57058;DHT22;55017;52.848;6.748;2023-04-24T13:12:09;11.00;99.90
57058;DHT22;55017;52.848;6.748;2023-04-24T13:14:35;10.90;99.90
57058;DHT22;55017;52.848;6.748;2023-04-24T13:17:01;10.90;99.90
57058;DHT22;55017;52.848;6.748;2023-04-24T13:19:28;10.80;99.90
57058;DHT22;55017;52.848;6.748;2023-04-24T13:21:55;10.60;99.90
57058;DHT22;55017;52.848;6.748;2023-04-24T13:24:21;10.50;99.90
57058;DHT22;55017;52.848;6.748;2023-04-24T13:26:50;10.30;99.90
57058;DHT22;55017;52.848;6.748;2023-04-24T13:29:15;10.20;99.90
57058;DHT22;55017;52.848;6.748;2023-04-24T13:31:41;10.00;99.90
57058;DHT22;55017;52.848;6.748;2023-04-24T13:34:06;10.10;99.90
57058;DHT22;55017;52.848;6.748;2023-04-24T13:36:32;10.10;99.90
57058;DHT22;55017;52.848;6.748;2023-04-24T13:38:58;10.00;99.90
57058;DHT22;55017;52.848;6.748;2023-04-24T13:41:24;10.10;99.90
57058;DHT22;55017;52.848;6.748;2023-04-24T13:43:49;10.10;99.90
57058;DHT22;55017;52.848;6.748;2023-04-24T13:46:15;10.20;99.90
57058;DHT22;55017;52.848;6.748;2023-04-24T13:48:41;10.80;99.90
57058;DHT22;55017;52.848;6.748;2023-04-24T13:51:06;10.60;99.90
57058;DHT22;55017;52.848;6.748;2023-04-24T13:53:32;10.40;99.90
57058;DHT22;55017;52.848;6.748;2023-04-24T13:56:01;10.20;99.90
57058;DHT22;55017;52.848;6.748;2023-04-24T13:58:27;10.20;99.90
57058;DHT22;55017;52.848;6.748;2023-04-24T14:00:52;10.20;99.90
57058;DHT22;55017;52.848;6.748;2023-04-24T14:03:18;10.10;99.90
57058;DHT22;55017;52.848;6.748;2023-04-24T14:05:44;10.10;99.90
57058;DHT22;55017;52.848;6.748;2023-04-24T14:08:09;9.90;99.90
57058;DHT22;55017;52.848;6.748;2023-04-24T14:10:35;9.90;99.90
57058;DHT22;55017;52.848;6.748;2023-04-24T14:13:01;9.70;99.90
57058;DHT22;55017;52.848;6.748;2023-04-24T14:15:26;9.60;99.90
57058;DHT22;55017;52.848;6.748;2023-04-24T14:17:52;9.60;99.90
57058;DHT22;55017;52.848;6.748;2023-04-24T14:20:17;9.60;99.90
57058;DHT22;55017;52.848;6.748;2023-04-24T14:22:43;9.70;99.90
57058;DHT22;55017;52.848;6.748;2023-04-24T14:25:09;9.70;99.90
57058;DHT22;55017;52.848;6.748;2023-04-24T14:27:35;9.60;99.90
57058;DHT22;55017;52.848;6.748;2023-04-24T14:30:01;9.70;99.90
57058;DHT22;55017;52.848;6.748;2023-04-24T14:32:26;9.70;99.90
57058;DHT22;55017;52.848;6.748;2023-04-24T14:34:52;9.70;99.90
57058;DHT22;55017;52.848;6.748;2023-04-24T14:37:18;9.80;99.90
57058;DHT22;55017;52.848;6.748;2023-04-24T14:39:45;9.70;99.90
57058;DHT22;55017;52.848;6.748;2023-04-24T14:42:10;9.80;99.90
57058;DHT22;55017;52.848;6.748;2023-04-24T14:44:36;9.80;99.90
57058;DHT22;55017;52.848;6.748;2023-04-24T14:47:02;9.80;99.90
57058;DHT22;55017;52.848;6.748;2023-04-24T14:49:27;9.80;99.90
57058;DHT22;55017;52.848;6.748;2023-04-24T14:51:53;9.80;99.90
57058;DHT22;55017;52.848;6.748;2023-04-24T14:54:18;9.80;99.90
57058;DHT22;55017;52.848;6.748;2023-04-24T14:56:45;9.70;99.90
57058;DHT22;55017;52.848;6.748;2023-04-24T14:59:10;9.70;99.90
57058;DHT22;55017;52.848;6.748;2023-04-24T15:01:36;9.70;99.90
57058;DHT22;55017;52.848;6.748;2023-04-24T15:04:01;9.70;99.90
57058;DHT22;55017;52.848;6.748;2023-04-24T15:06:29;9.80;99.90
57058;DHT22;55017;52.848;6.748;2023-04-24T15:08:56;9.80;99.90
57058;DHT22;55017;52.848;6.748;2023-04-24T15:11:22;9.80;99.90
57058;DHT22;55017;52.848;6.748;2023-04-24T15:13:48;9.80;99.90
57058;DHT22;55017;52.848;6.748;2023-04-24T15:16:13;9.90;99.90
57058;DHT22;55017;52.848;6.748;2023-04-24T15:18:39;10.00;99.90
57058;DHT22;55017;52.848;6.748;2023-04-24T15:21:05;9.90;99.90
57058;DHT22;55017;52.848;6.748;2023-04-24T15:23:30;10.10;99.90
57058;DHT22;55017;52.848;6.748;2023-04-24T15:25:57;10.00;99.90
57058;DHT22;55017;52.848;6.748;2023-04-24T15:28:24;9.90;99.90
57058;DHT22;55017;52.848;6.748;2023-04-24T15:30:50;10.10;99.90
57058;DHT22;55017;52.848;6.748;2023-04-24T15:33:16;10.10;99.90
57058;DHT22;55017;52.848;6.748;2023-04-24T15:35:41;10.10;99.90
57058;DHT22;55017;52.848;6.748;2023-04-24T15:38:07;10.10;99.90
57058;DHT22;55017;52.848;6.748;2023-04-24T15:40:33;10.20;99.90
57058;DHT22;55017;52.848;6.748;2023-04-24T15:42:58;10.40;99.90
57058;DHT22;55017;52.848;6.748;2023-04-24T15:45:24;10.30;99.90
57058;DHT22;55017;52.848;6.748;2023-04-24T15:47:50;10.40;99.90
57058;DHT22;55017;52.848;6.748;2023-04-24T15:50:16;10.30;99.90
57058;DHT22;55017;52.848;6.748;2023-04-24T15:52:43;10.20;99.90
57058;DHT22;55017;52.848;6.748;2023-04-24T15:55:09;10.10;99.90
57058;DHT22;55017;52.848;6.748;2023-04-24T15:57:35;9.80;99.90
57058;DHT22;55017;52.848;6.748;2023-04-24T16:00:02;9.80;99.90
57058;DHT22;55017;52.848;6.748;2023-04-24T16:02:31;9.80;99.90